createdAt,value
2018-11-22T00:00:41.159Z,19.32
2018-11-22T00:02:41.222Z,19.31
2018-11-22T00:04:41.287Z,19.28
2018-11-22T00:05:41.564Z,19.31
2018-11-22T00:08:41.416Z,19.30
2018-11-22T00:09:41.440Z,19.30
2018-11-22T00:13:41.568Z,19.25
2018-11-22T00:14:41.845Z,19.28
2018-11-22T00:18:41.792Z,19.28
2018-11-22T00:22:41.846Z,19.28
2018-11-22T00:23:42.135Z,19.25
2018-11-22T00:24:41.859Z,19.25
2018-11-22T00:25:41.990Z,19.28
2018-11-22T00:26:41.919Z,19.32
2018-11-22T00:27:42.002Z,19.30
2018-11-22T00:28:41.986Z,19.28
2018-11-22T00:29:42.320Z,19.30
2018-11-22T00:30:42.094Z,19.24
2018-11-22T00:31:42.432Z,19.25
2018-11-22T00:32:42.156Z,19.27
2018-11-22T00:35:42.209Z,19.25
2018-11-22T00:37:42.564Z,19.25
2018-11-22T00:38:42.297Z,19.27
2018-11-22T00:39:42.376Z,19.31
2018-11-22T00:40:42.357Z,19.28
2018-11-22T00:41:42.436Z,19.27
2018-11-22T00:43:42.558Z,19.28
2018-11-22T00:44:42.792Z,19.31
2018-11-22T00:45:42.563Z,19.30
2018-11-22T00:46:42.598Z,19.28
2018-11-22T00:47:42.626Z,19.21
2018-11-22T00:48:42.654Z,19.31
2018-11-22T00:49:42.641Z,19.28
2018-11-22T00:50:42.968Z,19.23
2018-11-22T00:53:42.814Z,19.28
2018-11-22T00:54:42.796Z,19.25
2018-11-22T00:55:42.881Z,19.25
2018-11-22T00:56:42.916Z,19.25
2018-11-22T00:57:42.962Z,19.27
2018-11-22T00:58:42.918Z,19.25
2018-11-22T01:00:43.036Z,19.28
2018-11-22T01:04:43.168Z,19.27
2018-11-22T01:05:43.191Z,19.25
2018-11-22T01:06:43.168Z,19.30
2018-11-22T01:07:43.251Z,19.25
2018-11-22T01:08:43.280Z,19.27
2018-11-22T01:09:43.318Z,19.25
2018-11-22T01:10:43.304Z,19.25
2018-11-22T01:15:43.848Z,19.21
2018-11-22T01:16:43.536Z,19.31
2018-11-22T01:17:43.584Z,19.24
2018-11-22T01:19:43.624Z,19.24
2018-11-22T01:20:43.605Z,19.17
2018-11-22T01:21:43.686Z,19.27
2018-11-22T01:24:43.733Z,19.16
2018-11-22T01:25:43.812Z,19.25
2018-11-22T01:26:43.847Z,19.23
2018-11-22T01:27:43.878Z,19.25
2018-11-22T01:28:43.857Z,19.17
2018-11-22T01:30:43.925Z,19.21
2018-11-22T01:31:43.950Z,19.16
2018-11-22T01:32:44.032Z,19.23
2018-11-22T01:33:44.166Z,19.21
2018-11-22T01:34:44.449Z,19.23
2018-11-22T01:35:44.127Z,19.16
2018-11-22T01:36:44.108Z,19.21
2018-11-22T01:37:44.189Z,19.21
2018-11-22T01:38:44.224Z,19.21
2018-11-22T01:39:44.255Z,19.24
2018-11-22T01:40:44.544Z,19.20
2018-11-22T01:41:44.315Z,19.24
2018-11-22T01:42:44.400Z,19.23
2018-11-22T01:44:44.406Z,19.17
2018-11-22T01:45:44.442Z,19.25
2018-11-22T01:46:44.424Z,19.23
2018-11-22T01:47:44.756Z,19.23
2018-11-22T01:48:44.531Z,19.24
2018-11-22T01:49:44.571Z,19.21
2018-11-22T01:50:44.545Z,19.15
2018-11-22T01:51:44.628Z,19.16
2018-11-22T01:52:44.610Z,19.20
2018-11-22T01:53:44.640Z,19.17
2018-11-22T01:54:45.122Z,19.16
2018-11-22T01:55:44.752Z,19.25
2018-11-22T01:56:44.780Z,19.23
2018-11-22T01:57:44.763Z,19.15
2018-11-22T01:58:44.847Z,19.15
2018-11-22T01:59:44.873Z,19.25
2018-11-22T02:00:44.954Z,19.17
2018-11-22T02:01:45.185Z,19.16
2018-11-22T02:02:44.972Z,19.21
2018-11-22T02:03:45.000Z,19.16
2018-11-22T02:04:44.989Z,19.21
2018-11-22T02:05:45.062Z,19.16
2018-11-22T02:06:45.043Z,19.17
2018-11-22T02:07:45.123Z,19.23
2018-11-22T02:08:45.409Z,19.21
2018-11-22T02:09:45.186Z,19.13
2018-11-22T02:10:45.220Z,19.21
2018-11-22T02:11:45.247Z,19.21
2018-11-22T02:12:45.233Z,19.16
2018-11-22T02:13:45.272Z,19.12
2018-11-22T02:14:45.308Z,19.15
2018-11-22T02:15:45.629Z,19.17
2018-11-22T02:16:45.427Z,19.15
2018-11-22T02:17:45.434Z,19.15
2018-11-22T02:18:45.469Z,19.16
2018-11-22T02:19:45.502Z,19.12
2018-11-22T02:20:45.479Z,19.13
2018-11-22T02:21:45.565Z,19.17
2018-11-22T02:22:45.845Z,19.17
2018-11-22T02:23:45.627Z,19.17
2018-11-22T02:24:45.657Z,19.12
2018-11-22T02:25:45.785Z,19.15
2018-11-22T02:26:45.668Z,19.21
2018-11-22T02:27:45.748Z,19.12
2018-11-22T02:28:45.729Z,19.09
2018-11-22T02:29:46.060Z,19.21
2018-11-22T02:30:45.842Z,19.15
2018-11-22T02:31:45.877Z,19.16
2018-11-22T02:32:45.859Z,19.13
2018-11-22T02:33:45.939Z,19.17
2018-11-22T02:34:45.968Z,19.13
2018-11-22T02:35:45.950Z,19.21
2018-11-22T02:36:46.277Z,19.16
2018-11-22T02:37:46.078Z,19.10
2018-11-22T02:38:46.089Z,19.16
2018-11-22T02:39:46.125Z,19.15
2018-11-22T02:40:46.201Z,19.16
2018-11-22T02:41:46.141Z,19.12
2018-11-22T02:42:46.165Z,19.16
2018-11-22T02:43:46.504Z,19.17
2018-11-22T02:44:46.277Z,19.12
2018-11-22T02:45:46.314Z,19.17
2018-11-22T02:46:46.290Z,19.09
2018-11-22T02:47:46.328Z,19.17
2018-11-22T02:48:46.352Z,19.15
2018-11-22T02:49:46.434Z,19.12
2018-11-22T02:50:46.712Z,19.13
2018-11-22T02:51:46.505Z,19.12
2018-11-22T02:52:46.477Z,19.20
2018-11-22T02:53:46.506Z,19.16
2018-11-22T02:54:46.594Z,19.15
2018-11-22T02:55:46.569Z,19.17
2018-11-22T02:56:46.664Z,19.13
2018-11-22T02:57:46.983Z,19.16
2018-11-22T02:58:46.668Z,19.15
2018-11-22T02:59:46.746Z,19.16
2018-11-22T03:00:46.780Z,19.15
2018-11-22T03:01:46.811Z,19.15
2018-11-22T03:02:46.808Z,19.16
2018-11-22T03:03:46.878Z,19.20
2018-11-22T03:04:47.158Z,19.13
2018-11-22T03:05:46.934Z,19.16
2018-11-22T03:06:46.914Z,19.13
2018-11-22T03:07:46.994Z,19.13
2018-11-22T03:08:46.976Z,19.15
2018-11-22T03:09:47.061Z,19.12
2018-11-22T03:10:47.048Z,19.12
2018-11-22T03:11:47.371Z,19.13
2018-11-22T03:12:48.233Z,19.10
2018-11-22T03:13:47.181Z,19.20
2018-11-22T03:14:47.163Z,19.17
2018-11-22T03:15:47.241Z,19.12
2018-11-22T03:16:47.281Z,19.17
2018-11-22T03:17:47.564Z,19.16
2018-11-22T03:18:47.290Z,19.20
2018-11-22T03:19:47.320Z,19.09
2018-11-22T03:20:47.397Z,19.17
2018-11-22T03:21:47.434Z,19.13
2018-11-22T03:22:47.413Z,19.13
2018-11-22T03:23:47.742Z,19.13
2018-11-22T03:24:47.476Z,19.20
2018-11-22T03:25:47.508Z,19.07
2018-11-22T03:27:47.672Z,19.13
2018-11-22T03:28:47.598Z,19.12
2018-11-22T03:29:47.930Z,19.23
2018-11-22T03:30:47.660Z,19.10
2018-11-22T03:31:47.745Z,19.13
2018-11-22T03:32:47.724Z,19.12
2018-11-22T03:33:47.802Z,19.12
2018-11-22T03:34:47.784Z,19.09
2018-11-22T03:35:47.834Z,19.17
2018-11-22T03:36:47.917Z,19.06
2018-11-22T03:37:47.884Z,19.06
2018-11-22T03:38:47.961Z,19.12
2018-11-22T03:39:47.944Z,19.10
2018-11-22T03:40:48.023Z,19.10
2018-11-22T03:41:48.057Z,19.09
2018-11-22T03:42:48.344Z,19.06
2018-11-22T03:43:48.066Z,19.07
2018-11-22T03:44:48.148Z,19.06
2018-11-22T03:45:48.185Z,19.06
2018-11-22T03:46:48.158Z,19.10
2018-11-22T03:47:48.239Z,19.06
2018-11-22T03:48:48.220Z,19.09
2018-11-22T03:49:50.443Z,19.10
2018-11-22T03:50:48.282Z,19.05
2018-11-22T03:51:48.317Z,19.07
2018-11-22T03:52:48.396Z,19.10
2018-11-22T03:53:48.375Z,19.07
2018-11-22T03:54:48.461Z,19.10
2018-11-22T03:55:48.489Z,19.06
2018-11-22T03:56:48.771Z,19.07
2018-11-22T03:57:48.549Z,19.12
2018-11-22T03:58:48.582Z,19.02
2018-11-22T03:59:48.617Z,19.09
2018-11-22T04:01:48.647Z,19.06
2018-11-22T04:02:48.659Z,19.09
2018-11-22T04:03:48.989Z,19.09
2018-11-22T04:04:48.772Z,19.06
2018-11-22T04:05:48.807Z,19.09
2018-11-22T04:06:48.796Z,19.06
2018-11-22T04:07:48.812Z,19.10
2018-11-22T04:09:48.926Z,19.06
2018-11-22T04:10:48.910Z,19.10
2018-11-22T04:11:48.937Z,19.09
2018-11-22T04:12:49.031Z,19.06
2018-11-22T04:13:49.050Z,19.09
2018-11-22T04:14:49.112Z,19.13
2018-11-22T04:15:49.065Z,19.09
2018-11-22T04:16:49.104Z,19.07
2018-11-22T04:17:49.125Z,19.13
2018-11-22T04:18:49.159Z,19.05
2018-11-22T04:19:49.241Z,19.09
2018-11-22T04:21:49.248Z,19.09
2018-11-22T04:22:49.631Z,19.12
2018-11-22T04:24:49.394Z,19.10
2018-11-22T04:25:49.426Z,19.12
2018-11-22T04:27:49.490Z,19.09
2018-11-22T04:28:49.774Z,19.09
2018-11-22T04:29:49.562Z,19.09
2018-11-22T04:30:49.533Z,19.07
2018-11-22T04:31:49.613Z,19.09
2018-11-22T04:32:49.649Z,19.10
2018-11-22T04:33:49.626Z,19.02
2018-11-22T04:34:49.709Z,19.09
2018-11-22T04:35:49.690Z,19.13
2018-11-22T04:36:49.717Z,19.12
2018-11-22T04:37:49.747Z,19.15
2018-11-22T04:38:49.779Z,19.09
2018-11-22T04:39:49.861Z,19.12
2018-11-22T04:41:50.178Z,19.10
2018-11-22T04:42:49.955Z,19.12
2018-11-22T04:45:50.096Z,19.12
2018-11-22T04:46:50.030Z,19.07
2018-11-22T04:47:50.113Z,19.09
2018-11-22T04:48:50.388Z,19.01
2018-11-22T04:49:50.170Z,19.05
2018-11-22T04:50:50.147Z,19.10
2018-11-22T04:51:50.178Z,19.02
2018-11-22T04:52:50.222Z,19.06
2018-11-22T04:53:50.240Z,19.09
2018-11-22T04:54:50.430Z,19.05
2018-11-22T04:55:50.359Z,19.05
2018-11-22T04:56:50.692Z,19.06
2018-11-22T04:57:50.420Z,18.99
2018-11-22T04:58:50.451Z,19.06
2018-11-22T04:59:50.431Z,18.97
2018-11-22T05:00:50.523Z,19.09
2018-11-22T05:01:50.857Z,19.13
2018-11-22T05:02:50.529Z,19.06
2018-11-22T05:03:50.555Z,19.09
2018-11-22T05:04:50.760Z,19.07
2018-11-22T05:05:50.669Z,19.06
2018-11-22T05:06:50.669Z,18.99
2018-11-22T05:07:50.735Z,18.99
2018-11-22T05:09:51.051Z,19.05
2018-11-22T05:10:50.774Z,19.06
2018-11-22T05:11:50.851Z,19.10
2018-11-22T05:12:50.884Z,19.02
2018-11-22T05:13:50.979Z,19.01
2018-11-22T05:14:50.945Z,19.10
2018-11-22T05:15:50.924Z,19.10
2018-11-22T05:16:51.269Z,19.10
2018-11-22T05:17:51.287Z,18.99
2018-11-22T05:18:51.069Z,18.97
2018-11-22T05:19:51.106Z,18.99
2018-11-22T05:20:51.132Z,19.06
2018-11-22T05:21:51.162Z,18.99
2018-11-22T05:22:51.143Z,19.01
2018-11-22T05:23:51.483Z,19.15
2018-11-22T05:24:51.208Z,19.10
2018-11-22T05:25:51.238Z,19.07
2018-11-22T05:26:51.318Z,18.99
2018-11-22T05:27:51.362Z,18.99
2018-11-22T05:28:51.329Z,19.05
2018-11-22T05:29:51.414Z,19.07
2018-11-22T05:30:51.743Z,19.05
2018-11-22T05:31:51.424Z,18.99
2018-11-22T05:32:51.509Z,19.05
2018-11-22T05:33:51.519Z,19.05
2018-11-22T05:34:51.516Z,18.99
2018-11-22T05:35:51.552Z,19.05
2018-11-22T05:36:51.581Z,19.06
2018-11-22T05:37:51.917Z,19.02
2018-11-22T05:38:52.095Z,19.06
2018-11-22T05:39:51.746Z,19.01
2018-11-22T05:40:51.754Z,19.07
2018-11-22T05:41:51.788Z,18.94
2018-11-22T05:42:51.771Z,19.02
2018-11-22T05:43:51.846Z,19.05
2018-11-22T05:44:52.129Z,18.97
2018-11-22T05:45:51.962Z,19.02
2018-11-22T05:46:51.892Z,19.01
2018-11-22T05:47:51.919Z,18.97
2018-11-22T05:48:52.007Z,19.01
2018-11-22T05:49:52.039Z,19.01
2018-11-22T05:50:52.080Z,19.05
2018-11-22T05:51:52.346Z,19.07
2018-11-22T05:52:52.116Z,18.96
2018-11-22T05:53:52.155Z,19.02
2018-11-22T05:54:52.143Z,18.96
2018-11-22T05:55:52.179Z,19.06
2018-11-22T05:56:52.279Z,18.99
2018-11-22T05:57:52.529Z,19.02
2018-11-22T05:58:52.290Z,18.96
2018-11-22T05:59:52.309Z,18.96
2018-11-22T06:00:52.372Z,18.91
2018-11-22T06:01:52.361Z,19.01
2018-11-22T06:02:52.439Z,18.99
2018-11-22T06:03:52.779Z,18.97
2018-11-22T06:04:52.451Z,18.93
2018-11-22T06:05:52.530Z,19.02
2018-11-22T06:06:52.513Z,18.91
2018-11-22T06:07:52.591Z,18.97
2018-11-22T06:08:52.574Z,19.02
2018-11-22T06:09:52.707Z,19.02
2018-11-22T06:11:52.727Z,19.01
2018-11-22T06:12:52.697Z,18.97
2018-11-22T06:13:52.784Z,18.91
2018-11-22T06:14:52.757Z,18.99
2018-11-22T06:15:53.142Z,19.01
2018-11-22T06:16:52.871Z,18.91
2018-11-22T06:17:52.904Z,18.99
2018-11-22T06:19:52.962Z,18.91
2018-11-22T06:20:52.948Z,18.94
2018-11-22T06:21:53.042Z,18.96
2018-11-22T06:22:53.335Z,19.06
2018-11-22T06:23:53.143Z,18.99
2018-11-22T06:24:53.169Z,18.89
2018-11-22T06:25:53.191Z,18.94
2018-11-22T06:26:53.190Z,18.91
2018-11-22T06:27:53.163Z,18.89
2018-11-22T06:28:53.245Z,19.02
2018-11-22T06:29:53.525Z,19.01
2018-11-22T06:30:53.255Z,18.99
2018-11-22T06:31:53.292Z,18.91
2018-11-22T06:32:53.367Z,18.99
2018-11-22T06:33:53.350Z,18.87
2018-11-22T06:34:53.434Z,18.93
2018-11-22T06:35:53.512Z,18.87
2018-11-22T06:36:53.801Z,18.89
2018-11-22T06:37:53.475Z,18.99
2018-11-22T06:38:53.561Z,19.05
2018-11-22T06:39:53.538Z,19.01
2018-11-22T06:40:53.616Z,18.91
2018-11-22T06:41:53.700Z,18.99
2018-11-22T06:42:53.629Z,18.97
2018-11-22T06:43:54.022Z,19.02
2018-11-22T06:44:53.739Z,18.97
2018-11-22T06:45:53.976Z,18.97
2018-11-22T06:46:53.754Z,18.97
2018-11-22T06:47:53.835Z,18.91
2018-11-22T06:48:53.923Z,18.87
2018-11-22T06:49:53.895Z,18.91
2018-11-22T06:50:58.207Z,18.96
2018-11-22T06:51:53.962Z,18.96
2018-11-22T06:52:54.020Z,18.94
2018-11-22T06:53:54.019Z,19.02
2018-11-22T06:54:54.002Z,18.93
2018-11-22T06:55:54.031Z,18.90
2018-11-22T06:57:54.106Z,18.91
2018-11-22T06:58:54.475Z,18.90
2018-11-22T06:59:54.208Z,18.94
2018-11-22T07:00:54.237Z,18.90
2018-11-22T07:01:54.333Z,18.91
2018-11-22T07:02:54.250Z,19.01
2018-11-22T07:03:54.330Z,18.96
2018-11-22T07:04:54.360Z,18.96
2018-11-22T07:05:54.646Z,18.91
2018-11-22T07:06:54.374Z,18.99
2018-11-22T07:07:54.406Z,18.90
2018-11-22T07:08:54.441Z,18.89
2018-11-22T07:09:54.519Z,18.89
2018-11-22T07:10:54.500Z,18.87
2018-11-22T07:11:54.597Z,18.94
2018-11-22T07:12:55.213Z,18.91
2018-11-22T07:13:54.645Z,18.89
2018-11-22T07:14:54.635Z,18.94
2018-11-22T07:15:54.711Z,18.91
2018-11-22T07:16:54.684Z,18.93
2018-11-22T07:17:54.713Z,19.01
2018-11-22T07:18:54.843Z,18.94
2018-11-22T07:19:55.181Z,18.86
2018-11-22T07:20:54.806Z,18.87
2018-11-22T07:22:54.874Z,18.93
2018-11-22T07:24:54.983Z,18.89
2018-11-22T07:25:55.010Z,18.91
2018-11-22T07:26:55.298Z,18.91
2018-11-22T07:27:55.027Z,18.97
2018-11-22T07:29:55.143Z,18.91
2018-11-22T07:30:55.122Z,18.94
2018-11-22T07:31:55.197Z,18.93
2018-11-22T07:32:55.534Z,18.91
2018-11-22T07:33:55.561Z,18.91
2018-11-22T07:34:55.292Z,18.91
2018-11-22T07:35:55.272Z,19.05
2018-11-22T07:37:55.349Z,18.91
2018-11-22T07:38:55.447Z,18.87
2018-11-22T07:39:55.397Z,18.93
2018-11-22T07:40:55.734Z,18.91
2018-11-22T07:41:55.468Z,18.89
2018-11-22T07:42:55.504Z,18.90
2018-11-22T07:43:55.573Z,18.96
2018-11-22T07:44:55.556Z,18.93
2018-11-22T07:45:55.638Z,18.91
2018-11-22T07:46:55.913Z,18.90
2018-11-22T07:47:55.819Z,18.89
2018-11-22T07:48:55.744Z,18.94
2018-11-22T07:49:55.724Z,18.89
2018-11-22T07:51:55.869Z,18.89
2018-11-22T07:52:56.110Z,18.89
2018-11-22T07:53:55.890Z,18.91
2018-11-22T07:54:55.941Z,18.91
2018-11-22T07:55:55.949Z,18.91
2018-11-22T07:56:55.978Z,18.93
2018-11-22T07:57:56.015Z,18.89
2018-11-22T07:58:56.288Z,18.89
2018-11-22T07:59:56.069Z,18.89
2018-11-22T08:00:56.051Z,18.93
2018-11-22T08:01:56.198Z,18.99
2018-11-22T08:02:56.112Z,18.90
2018-11-22T08:03:56.294Z,18.94
2018-11-22T08:04:56.225Z,18.86
2018-11-22T08:05:56.853Z,18.97
2018-11-22T08:06:56.288Z,18.89
2018-11-22T08:07:56.267Z,18.89
2018-11-22T08:08:56.297Z,19.02
2018-11-22T08:09:56.376Z,18.96
2018-11-22T08:10:56.362Z,19.02
2018-11-22T08:11:56.468Z,19.01
2018-11-22T08:13:56.752Z,18.93
2018-11-22T08:14:56.490Z,18.96
2018-11-22T08:15:56.565Z,19.01
2018-11-22T08:16:56.649Z,19.06
2018-11-22T08:17:56.631Z,19.02
2018-11-22T08:18:56.666Z,19.01
2018-11-22T08:19:56.992Z,18.94
2018-11-22T08:20:56.723Z,19.01
2018-11-22T08:21:56.702Z,19.05
2018-11-22T08:22:56.787Z,19.06
2018-11-22T08:23:56.813Z,19.05
2018-11-22T08:24:56.799Z,19.05
2018-11-22T08:26:56.859Z,19.13
2018-11-22T08:27:57.188Z,19.10
2018-11-22T08:28:56.918Z,19.12
2018-11-22T08:29:56.999Z,19.06
2018-11-22T08:30:56.988Z,19.07
2018-11-22T08:31:57.079Z,19.05
2018-11-22T08:32:57.046Z,19.09
2018-11-22T08:33:57.078Z,19.01
2018-11-22T08:34:57.413Z,19.09
2018-11-22T08:35:57.191Z,19.09
2018-11-22T08:36:57.221Z,19.15
2018-11-22T08:37:57.202Z,19.06
2018-11-22T08:38:57.232Z,19.13
2018-11-22T08:39:57.265Z,19.12
2018-11-22T08:40:57.358Z,19.07
2018-11-22T08:41:57.624Z,19.20
2018-11-22T08:42:57.381Z,19.17
2018-11-22T08:43:57.403Z,19.20
2018-11-22T08:44:57.437Z,19.17
2018-11-22T08:45:57.502Z,19.05
2018-11-22T08:46:57.574Z,19.15
2018-11-22T08:47:57.577Z,19.20
2018-11-22T08:48:57.543Z,19.15
2018-11-22T08:49:57.575Z,19.23
2018-11-22T08:50:57.667Z,19.17
2018-11-22T08:51:57.701Z,19.25
2018-11-22T08:53:57.751Z,19.17
2018-11-22T08:54:57.783Z,19.23
2018-11-22T08:55:57.769Z,19.27
2018-11-22T08:56:57.897Z,19.21
2018-11-22T08:57:57.878Z,19.16
2018-11-22T08:58:57.967Z,19.21
2018-11-22T08:59:57.902Z,19.28
2018-11-22T09:00:58.319Z,19.27
2018-11-22T09:01:58.037Z,19.30
2018-11-22T09:02:58.040Z,19.27
2018-11-22T09:03:58.061Z,19.27
2018-11-22T09:04:58.153Z,19.27
2018-11-22T09:05:58.071Z,19.25
2018-11-22T09:06:58.208Z,19.28
2018-11-22T09:07:58.435Z,19.30
2018-11-22T09:08:58.189Z,19.28
2018-11-22T09:10:02.477Z,19.32
2018-11-22T09:10:58.238Z,19.32
2018-11-22T09:13:58.373Z,19.27
2018-11-22T09:16:58.768Z,19.34
2018-11-22T09:17:58.503Z,19.25
2018-11-22T09:18:58.537Z,19.34
2018-11-22T09:19:58.973Z,19.25
2018-11-22T09:21:58.623Z,19.38
2018-11-22T09:22:58.654Z,19.40
2018-11-22T09:23:58.993Z,19.38
2018-11-22T09:25:58.750Z,19.38
2018-11-22T09:27:58.811Z,19.40
2018-11-22T09:28:58.844Z,19.43
2018-11-22T09:30:58.907Z,19.39
2018-11-22T09:31:58.938Z,19.32
2018-11-22T09:32:58.974Z,19.39
2018-11-22T09:33:59.000Z,19.40
2018-11-22T09:34:59.331Z,19.39
2018-11-22T09:35:59.065Z,19.40
2018-11-22T09:36:59.049Z,19.45
2018-11-22T09:37:59.433Z,19.40
2018-11-22T09:38:59.110Z,19.39
2018-11-22T09:39:59.138Z,19.40
2018-11-22T09:40:59.234Z,19.45
2018-11-22T09:42:59.284Z,19.40
2018-11-22T09:44:59.347Z,19.42
2018-11-22T09:45:59.379Z,19.42
2018-11-22T09:46:59.412Z,19.46
2018-11-22T09:47:59.444Z,19.39
2018-11-22T09:48:59.419Z,19.45
2018-11-22T09:49:59.452Z,19.43
2018-11-22T09:50:59.487Z,19.45
2018-11-22T09:51:59.571Z,19.42
2018-11-22T09:52:59.552Z,19.43
2018-11-22T09:53:59.648Z,19.46
2018-11-22T09:54:59.861Z,19.38
2018-11-22T09:55:59.702Z,19.49
2018-11-22T09:56:59.673Z,19.40
2018-11-22T09:58:00.012Z,19.45
2018-11-22T09:58:59.799Z,19.46
2018-11-22T09:59:59.816Z,19.42
2018-11-22T10:01:00.201Z,19.45
2018-11-22T10:01:59.879Z,19.45
2018-11-22T10:02:59.910Z,19.47
2018-11-22T10:04:00.194Z,19.46
2018-11-22T10:05:00.397Z,19.47
2018-11-22T10:06:00.020Z,19.50
2018-11-22T10:06:59.996Z,19.38
2018-11-22T10:08:00.079Z,19.40
2018-11-22T10:09:00.068Z,19.39
2018-11-22T10:10:00.384Z,19.43
2018-11-22T10:11:00.211Z,19.35
2018-11-22T10:12:00.195Z,19.42
2018-11-22T10:13:00.233Z,19.53
2018-11-22T10:14:00.270Z,19.40
2018-11-22T10:15:00.238Z,19.46
2018-11-22T10:16:00.280Z,19.58
2018-11-22T10:17:00.688Z,19.45
2018-11-22T10:18:00.381Z,19.52
2018-11-22T10:19:00.375Z,19.40
2018-11-22T10:20:00.443Z,19.42
2018-11-22T10:21:00.536Z,19.53
2018-11-22T10:22:00.458Z,19.46
2018-11-22T10:23:00.537Z,19.47
2018-11-22T10:24:00.873Z,19.49
2018-11-22T10:25:00.592Z,19.53
2018-11-22T10:26:00.594Z,19.55
2018-11-22T10:27:00.618Z,19.50
2018-11-22T10:28:00.657Z,19.47
2018-11-22T10:29:00.831Z,19.53
2018-11-22T10:30:00.780Z,19.47
2018-11-22T10:31:01.097Z,19.53
2018-11-22T10:32:00.823Z,19.58
2018-11-22T10:33:00.854Z,19.52
2018-11-22T10:34:00.885Z,19.61
2018-11-22T10:35:00.924Z,19.55
2018-11-22T10:36:00.898Z,19.52
2018-11-22T10:37:01.069Z,19.53
2018-11-22T10:38:01.453Z,19.53
2018-11-22T10:39:01.061Z,19.50
2018-11-22T10:40:01.083Z,19.61
2018-11-22T10:41:01.114Z,19.53
2018-11-22T10:42:01.138Z,19.61
2018-11-22T10:43:01.176Z,19.52
2018-11-22T10:44:01.220Z,19.49
2018-11-22T10:45:01.735Z,19.57
2018-11-22T10:46:01.528Z,19.49
2018-11-22T10:47:01.567Z,19.60
2018-11-22T10:48:01.339Z,19.52
2018-11-22T10:49:01.316Z,19.50
2018-11-22T10:51:01.427Z,19.58
2018-11-22T10:52:01.705Z,19.55
2018-11-22T10:53:01.490Z,19.52
2018-11-22T10:54:01.521Z,19.49
2018-11-22T10:55:01.500Z,19.49
2018-11-22T10:56:01.647Z,19.60
2018-11-22T10:57:01.967Z,19.57
2018-11-22T10:58:01.603Z,19.53
2018-11-22T10:59:02.230Z,19.65
2018-11-22T11:00:02.191Z,19.57
2018-11-22T11:01:01.777Z,19.52
2018-11-22T11:02:01.977Z,19.60
2018-11-22T11:04:01.813Z,19.57
2018-11-22T11:05:01.830Z,19.60
2018-11-22T11:06:02.144Z,19.61
2018-11-22T11:07:02.079Z,19.58
2018-11-22T11:08:01.911Z,19.62
2018-11-22T11:09:01.999Z,19.53
2018-11-22T11:10:01.989Z,19.61
2018-11-22T11:11:02.079Z,19.58
2018-11-22T11:12:02.134Z,19.62
2018-11-22T11:13:02.369Z,19.60
2018-11-22T11:14:02.100Z,19.61
2018-11-22T11:15:02.227Z,19.55
2018-11-22T11:16:02.220Z,19.68
2018-11-22T11:18:02.282Z,19.60
2018-11-22T11:19:02.321Z,19.72
2018-11-22T11:20:02.646Z,19.62
2018-11-22T11:21:02.699Z,19.76
2018-11-22T11:22:02.769Z,19.71
2018-11-22T11:23:02.388Z,19.75
2018-11-22T11:24:02.473Z,19.67
2018-11-22T11:25:02.499Z,19.72
2018-11-22T11:26:02.533Z,19.72
2018-11-22T11:27:03.300Z,19.70
2018-11-22T11:28:02.671Z,19.70
2018-11-22T11:29:02.627Z,19.72
2018-11-22T11:30:03.008Z,19.70
2018-11-22T11:31:02.736Z,19.70
2018-11-22T11:32:02.672Z,19.67
2018-11-22T11:33:02.753Z,19.75
2018-11-22T11:34:03.046Z,19.65
2018-11-22T11:35:02.823Z,19.72
2018-11-22T11:36:02.848Z,19.70
2018-11-22T11:37:02.830Z,19.72
2018-11-22T11:38:03.010Z,19.70
2018-11-22T11:39:02.941Z,19.70
2018-11-22T11:40:02.974Z,19.76
2018-11-22T11:41:03.342Z,19.79
2018-11-22T11:42:03.042Z,19.75
2018-11-22T11:43:03.018Z,19.78
2018-11-22T11:44:03.120Z,19.72
2018-11-22T11:45:03.082Z,19.78
2018-11-22T11:46:03.170Z,19.72
2018-11-22T11:47:03.143Z,19.78
2018-11-22T11:48:03.542Z,19.75
2018-11-22T11:49:03.256Z,19.71
2018-11-22T11:50:03.319Z,19.72
2018-11-22T11:51:03.270Z,19.76
2018-11-22T11:53:03.389Z,19.76
2018-11-22T11:54:03.669Z,19.79
2018-11-22T11:55:03.446Z,19.76
2018-11-22T11:56:03.435Z,19.76
2018-11-22T11:57:03.519Z,19.80
2018-11-22T11:58:03.545Z,19.78
2018-11-22T11:59:03.539Z,19.76
2018-11-22T12:00:04.209Z,19.80
2018-11-22T12:01:03.640Z,19.85
2018-11-22T12:02:03.781Z,19.76
2018-11-22T12:03:03.654Z,19.80
2018-11-22T12:04:03.947Z,19.80
2018-11-22T12:05:03.731Z,19.83
2018-11-22T12:06:04.046Z,19.83
2018-11-22T12:07:03.831Z,19.83
2018-11-22T12:08:03.900Z,19.86
2018-11-22T12:09:03.855Z,19.89
2018-11-22T12:10:03.981Z,19.94
2018-11-22T12:11:03.909Z,19.90
2018-11-22T12:12:03.941Z,19.90
2018-11-22T12:13:04.272Z,19.92
2018-11-22T12:14:04.057Z,19.92
2018-11-22T12:15:04.038Z,19.92
2018-11-22T12:16:04.133Z,19.89
2018-11-22T12:17:04.106Z,19.89
2018-11-22T12:18:04.302Z,19.94
2018-11-22T12:19:04.215Z,19.94
2018-11-22T12:20:04.498Z,20.01
2018-11-22T12:21:04.228Z,19.95
2018-11-22T12:22:04.266Z,20.02
2018-11-22T12:23:04.291Z,20.04
2018-11-22T12:24:04.386Z,20.07
2018-11-22T12:25:04.406Z,20.05
2018-11-22T12:26:04.790Z,20.02
2018-11-22T12:27:04.765Z,20.02
2018-11-22T12:28:04.511Z,20.04
2018-11-22T12:29:04.485Z,20.12
2018-11-22T12:30:04.526Z,20.08
2018-11-22T12:31:06.607Z,20.08
2018-11-22T12:32:04.586Z,20.16
2018-11-22T12:33:04.615Z,20.15
2018-11-22T12:34:04.659Z,20.17
2018-11-22T12:35:04.746Z,20.13
2018-11-22T12:36:04.774Z,20.16
2018-11-22T12:37:04.746Z,20.12
2018-11-22T12:38:04.784Z,20.13
2018-11-22T12:39:04.859Z,20.17
2018-11-22T12:40:05.145Z,20.10
2018-11-22T12:41:04.880Z,20.13
2018-11-22T12:42:04.955Z,20.15
2018-11-22T12:43:04.956Z,20.13
2018-11-22T12:44:05.001Z,20.13
2018-11-22T12:45:05.050Z,20.23
2018-11-22T12:46:05.145Z,20.22
2018-11-22T12:48:05.448Z,20.23
2018-11-22T12:49:05.248Z,20.20
2018-11-22T12:50:05.248Z,20.22
2018-11-22T12:51:05.250Z,20.27
2018-11-22T12:52:05.288Z,20.27
2018-11-22T12:53:05.321Z,20.33
2018-11-22T12:54:05.343Z,20.33
2018-11-22T12:55:05.623Z,20.33
2018-11-22T12:56:05.409Z,20.33
2018-11-22T12:57:05.444Z,20.33
2018-11-22T12:58:05.489Z,20.30
2018-11-22T12:59:05.800Z,20.31
2018-11-22T13:00:05.504Z,20.38
2018-11-22T13:01:05.568Z,20.34
2018-11-22T13:02:05.862Z,20.38
2018-11-22T13:03:05.631Z,20.40
2018-11-22T13:04:05.667Z,20.37
2018-11-22T13:05:05.647Z,20.40
2018-11-22T13:06:05.692Z,20.37
2018-11-22T13:07:05.798Z,20.38
2018-11-22T13:08:05.791Z,20.44
2018-11-22T13:09:05.825Z,20.40
2018-11-22T13:10:05.861Z,20.37
2018-11-22T13:11:06.042Z,20.48
2018-11-22T13:12:05.933Z,20.37
2018-11-22T13:13:05.904Z,20.37
2018-11-22T13:14:05.993Z,20.42
2018-11-22T13:15:06.268Z,20.42
2018-11-22T13:16:05.998Z,20.44
2018-11-22T13:17:06.085Z,20.38
2018-11-22T13:18:06.114Z,20.41
2018-11-22T13:19:06.303Z,20.40
2018-11-22T13:20:06.130Z,20.42
2018-11-22T13:21:06.518Z,20.41
2018-11-22T13:22:06.302Z,20.41
2018-11-22T13:23:06.277Z,20.40
2018-11-22T13:24:06.308Z,20.46
2018-11-22T13:25:06.340Z,20.46
2018-11-22T13:26:06.410Z,20.44
2018-11-22T13:27:06.714Z,20.48
2018-11-22T13:28:06.445Z,20.51
2018-11-22T13:29:06.468Z,20.50
2018-11-22T13:30:06.553Z,20.42
2018-11-22T13:31:06.661Z,20.50
2018-11-22T13:32:06.574Z,20.42
2018-11-22T13:33:06.899Z,20.51
2018-11-22T13:34:06.687Z,20.54
2018-11-22T13:35:06.676Z,20.48
2018-11-22T13:36:06.647Z,20.48
2018-11-22T13:37:06.737Z,20.40
2018-11-22T13:38:06.724Z,20.40
2018-11-22T13:39:06.798Z,20.53
2018-11-22T13:40:06.846Z,20.50
2018-11-22T13:41:06.874Z,20.54
2018-11-22T13:42:07.195Z,20.54
2018-11-22T13:43:06.888Z,20.48
2018-11-22T13:44:06.969Z,20.42
2018-11-22T13:45:06.960Z,20.48
2018-11-22T13:46:07.275Z,20.42
2018-11-22T13:47:07.063Z,20.48
2018-11-22T13:48:07.088Z,20.48
2018-11-22T13:49:07.122Z,20.57
2018-11-22T13:50:07.453Z,20.58
2018-11-22T13:51:07.197Z,20.60
2018-11-22T13:52:07.176Z,20.61
2018-11-22T13:53:07.540Z,20.61
2018-11-22T13:54:07.283Z,20.58
2018-11-22T13:55:07.278Z,20.61
2018-11-22T13:56:07.298Z,20.72
2018-11-22T13:57:07.345Z,20.73
2018-11-22T13:58:07.416Z,20.75
2018-11-22T13:59:07.450Z,20.66
2018-11-22T14:00:07.734Z,20.71
2018-11-22T14:01:07.470Z,20.71